This is the latest recevied weather packets stored in our database for station/object WY1U-1. If no packets are shown the sender has not sent any weather packets the latest 10 day(s).
| Time | Temp. | Humidity | Pressure | Rain* | Wind** | Luminosity | Snow |
|---|---|---|---|---|---|---|---|
| 1777604511 | 8.89° C | 95% | 1009.4 hPa | 0 mm | - | - | - |
| 1777600912 | 10° C | 95% | 1009 hPa | 0 mm | - | - | - |
| 1777599110 | 10.56° C | 94% | 1008.8 hPa | 0 mm | - | - | - |
| 1777593711 | 11.67° C | 94% | 1008.1 hPa | 0 mm | - | - | - |
| 1777590111 | 12.78° C | 93% | 1007.7 hPa | 0.76 mm | - | - | - |
| 1777586511 | 14.44° C | 81% | 1007.1 hPa | 0 mm | - | - | - |
| 1777582911 | 13.33° C | 85% | 1006.6 hPa | 0 mm | - | - | - |
| 1777579311 | 13.33° C | 85% | 1006.6 hPa | 0 mm | - | - | - |
| 1777575711 | 13.89° C | 82% | 1006.8 hPa | 0 mm | - | - | - |
| 1777572111 | 12.22° C | 88% | 1007 hPa | 0 mm | - | - | - |
| 1777568511 | 12.22° C | 92% | 1006.9 hPa | 0 mm | - | - | - |
| 1777561310 | 10.56° C | 96% | 1007.9 hPa | 0 mm | - | - | - |
| 1777554111 | 10° C | 96% | 1008 hPa | 0.25 mm | - | - | - |
| 1777546912 | 9.44° C | 96% | 1008.6 hPa | 0.25 mm | - | - | - |
| 1777543312 | 9.44° C | 96% | 1008 hPa | 0.51 mm | - | - | - |
| 1777539711 | 9.44° C | 96% | 1008.6 hPa | 0.76 mm | - | - | - |
| 1777537910 | 9.44° C | 96% | 1008.8 hPa | 0 mm | - | - | - |
| 1777536111 | 9.44° C | 96% | 1008.9 hPa | 0.51 mm | - | - | - |
| 1777532511 | 9.44° C | 95% | 1009.3 hPa | 0.51 mm | - | - | - |
| 1777528909 | 9.44° C | 95% | 1009.4 hPa | 1.52 mm | - | - | - |
| 1777521710 | 10.56° C | 91% | 1011.2 hPa | 0 mm | - | - | - |
| 1777514511 | 11.67° C | 81% | 1012 hPa | 0 mm | - | - | - |
| 1777512710 | 12.22° C | 79% | 1011.8 hPa | 0 mm | - | - | - |
| 1777510910 | 12.22° C | 77% | 1011.4 hPa | 0 mm | - | - | - |
| 1777507311 | 13.33° C | 72% | 1011.1 hPa | 0 mm | - | - | - |
* Rain latest hour (hover to see other rain measurements)
** Current wind speed in m/s (hover to see current wind gust speed)